Time;durP1;ratioP1;P1;durP2;ratioP2;P2;SDS_P1;SDS_P2;PMS_P1;PMS_P2;Temp;Humidity;BMP_temperature;BMP_pressure;BME280_temperature;BME280_humidity;BME280_pressure;Samples;Min_cycle;Max_cycle;Signal;HPM_P1;HPM_P2
2022/06/01 00:00:25;;;;;;;4.35;2.88;;;;;;;;;;4996358;28;20030;-71
2022/06/01 00:02:50;;;;;;;3.78;2.70;;;;;;;;;;5001482;28;20025;-71
2022/06/01 00:05:16;;;;;;;2.97;2.67;;;;;;;;;;4995693;28;20030;-71
2022/06/01 00:07:42;;;;;;;2.92;2.33;;;;;;;;;;4999697;28;20669;-71
2022/06/01 00:10:07;;;;;;;3.90;2.80;;;;;;;;;;4997594;28;20088;-71
2022/06/01 00:12:34;;;;;;;3.10;2.80;;;;;;;;;;4999121;28;20423;-72
2022/06/01 00:15:01;;;;;;;5.18;3.15;;;;;;;;;;4997841;28;20034;-71
2022/06/01 00:17:26;;;;;;;6.22;2.70;;;;;;;;;;4999122;28;20062;-71
2022/06/01 00:19:52;;;;;;;9.07;3.58;;;;;;;;;;5013016;28;20066;-71
2022/06/01 00:22:17;;;;;;;3.13;2.70;;;;;;;;;;4989724;28;20046;-70
2022/06/01 00:24:45;;;;;;;3.35;3.00;;;;;;;;;;4998850;28;20353;-71
2022/06/01 00:27:12;;;;;;;4.53;2.53;;;;;;;;;;4997794;28;20101;-71
2022/06/01 00:29:38;;;;;;;3.70;3.03;;;;;;;;;;4999773;28;20120;-71
2022/06/01 00:32:06;;;;;;;3.40;3.10;;;;;;;;;;4997759;28;20556;-72
2022/06/01 00:34:32;;;;;;;3.70;2.80;;;;;;;;;;4999846;28;20045;-72
2022/06/01 00:36:57;;;;;;;3.50;3.15;;;;;;;;;;5012404;28;20525;-72
2022/06/01 00:39:23;;;;;;;3.58;3.28;;;;;;;;;;4995585;28;20062;-71
2022/06/01 00:41:49;;;;;;;9.05;3.22;;;;;;;;;;5000007;28;20061;-70
2022/06/01 00:44:16;;;;;;;5.63;3.05;;;;;;;;;;4996172;28;20065;-71
2022/06/01 00:46:42;;;;;;;4.72;2.45;;;;;;;;;;4997843;28;20034;-70
2022/06/01 00:49:20;;;;;;;4.65;2.85;;;;;;;;;;4997613;28;20040;-70
2022/06/01 00:51:47;;;;;;;4.93;2.78;;;;;;;;;;4999467;28;20104;-70
2022/06/01 00:54:14;;;;;;;3.00;2.80;;;;;;;;;;5010949;28;20027;-71
2022/06/01 00:56:49;;;;;;;4.38;3.40;;;;;;;;;;5001759;28;20041;-70
2022/06/01 00:59:19;;;;;;;3.72;3.30;;;;;;;;;;5020470;28;20072;-71
2022/06/01 01:01:46;;;;;;;4.70;3.08;;;;;;;;;;5014154;28;20066;-73
2022/06/01 01:04:12;;;;;;;4.43;3.45;;;;;;;;;;5015254;28;20121;-70
2022/06/01 01:06:40;;;;;;;3.30;2.70;;;;;;;;;;5019638;28;20030;-71
2022/06/01 01:09:09;;;;;;;3.70;2.88;;;;;;;;;;5015792;28;20128;-71
2022/06/01 01:11:49;;;;;;;4.10;3.47;;;;;;;;;;5006516;28;20085;-71
2022/06/01 01:14:22;;;;;;;3.45;3.00;;;;;;;;;;5002412;28;20350;-70
2022/06/01 01:16:49;;;;;;;3.50;3.00;;;;;;;;;;5010476;28;20030;-71
2022/06/01 01:19:36;;;;;;;6.90;2.88;;;;;;;;;;5023047;28;20034;-72
2022/06/01 01:22:08;;;;;;;4.45;3.20;;;;;;;;;;5004092;28;20056;-71
2022/06/01 01:24:45;;;;;;;3.45;3.10;;;;;;;;;;5000088;28;20037;-70
2022/06/01 01:27:10;;;;;;;4.93;3.08;;;;;;;;;;5002803;28;20981;-71
2022/06/01 01:29:41;;;;;;;3.47;3.13;;;;;;;;;;5001090;28;20041;-71
2022/06/01 01:32:10;;;;;;;3.85;3.35;;;;;;;;;;5016901;28;20026;-71
2022/06/01 01:34:38;;;;;;;3.63;3.03;;;;;;;;;;5002084;28;20029;-72
2022/06/01 01:37:22;;;;;;;4.10;3.15;;;;;;;;;;5003730;28;20053;-70
2022/06/01 01:39:51;;;;;;;4.10;2.70;;;;;;;;;;4997563;28;20054;-70
2022/06/01 01:42:17;;;;;;;3.10;2.80;;;;;;;;;;5003641;28;20026;-70
2022/06/01 01:44:45;;;;;;;3.40;3.10;;;;;;;;;;4997533;28;20442;-70
2022/06/01 01:47:12;;;;;;;3.22;2.85;;;;;;;;;;5003605;28;20026;-71
2022/06/01 01:49:39;;;;;;;2.95;2.65;;;;;;;;;;5007123;28;20109;-71
2022/06/01 01:52:09;;;;;;;4.25;3.05;;;;;;;;;;4998726;28;20070;-72
2022/06/01 01:54:43;;;;;;;4.57;3.08;;;;;;;;;;4990985;28;20026;-71
2022/06/01 01:57:36;;;;;;;3.25;2.95;;;;;;;;;;5018574;28;20029;-71
2022/06/01 02:00:14;;;;;;;3.20;2.90;;;;;;;;;;5009996;28;20076;-71
2022/06/01 02:02:52;;;;;;;3.30;2.95;;;;;;;;;;5006695;28;20023;-71
2022/06/01 02:08:28;;;;;;;22.52;7.05;;;;;;;;;;4997615;28;20065;-71
2022/06/01 02:14:12;;;;;;;4.63;3.13;;;;;;;;;;4998119;28;20160;-71
2022/06/01 02:16:43;;;;;;;7.85;3.15;;;;;;;;;;4997196;28;20038;-70
2022/06/01 02:19:15;;;;;;;4.13;3.20;;;;;;;;;;5003140;28;20026;-71
2022/06/01 02:21:40;;;;;;;3.50;3.20;;;;;;;;;;4996127;28;20042;-71
2022/06/01 02:24:06;;;;;;;3.92;3.30;;;;;;;;;;5002029;28;20439;-72
2022/06/01 02:26:33;;;;;;;3.42;3.15;;;;;;;;;;4997959;28;20076;-71
2022/06/01 02:29:16;;;;;;;4.50;3.28;;;;;;;;;;5004223;28;20475;-72
2022/06/01 02:31:42;;;;;;;4.50;3.15;;;;;;;;;;5000110;28;20517;-70
2022/06/01 02:34:11;;;;;;;8.30;3.80;;;;;;;;;;5002094;28;20053;-71
2022/06/01 02:36:43;;;;;;;5.20;3.13;;;;;;;;;;5014306;28;20033;-72
2022/06/01 02:39:10;;;;;;;3.63;3.05;;;;;;;;;;5017923;28;20057;-71
2022/06/01 02:44:23;;;;;;;3.38;3.08;;;;;;;;;;4993247;28;20030;-71
2022/06/01 02:46:50;;;;;;;6.20;3.42;;;;;;;;;;5002654;28;20038;-71
2022/06/01 02:49:17;;;;;;;4.70;3.40;;;;;;;;;;5006860;28;20061;-71
2022/06/01 02:51:44;;;;;;;5.32;3.60;;;;;;;;;;5002487;28;20049;-71
2022/06/01 02:54:10;;;;;;;2.95;2.72;;;;;;;;;;5004105;28;20382;-71
2022/06/01 02:56:35;;;;;;;3.67;3.10;;;;;;;;;;5001917;28;20105;-70
2022/06/01 02:59:01;;;;;;;3.65;3.35;;;;;;;;;;4991386;28;20108;-71
2022/06/01 03:01:27;;;;;;;3.50;3.20;;;;;;;;;;5002493;28;20076;-71
2022/06/01 03:03:53;;;;;;;6.53;3.00;;;;;;;;;;5005865;28;20030;-70
2022/06/01 03:06:19;;;;;;;3.40;3.10;;;;;;;;;;5005439;28;20500;-71
2022/06/01 03:08:45;;;;;;;3.22;2.92;;;;;;;;;;4996436;28;20046;-70
2022/06/01 03:11:12;;;;;;;4.95;3.13;;;;;;;;;;5002589;28;20034;-70
2022/06/01 03:13:38;;;;;;;3.65;3.00;;;;;;;;;;4990991;28;20061;-70
2022/06/01 03:16:04;;;;;;;11.65;3.10;;;;;;;;;;5018161;28;20030;-69
2022/06/01 03:18:31;;;;;;;3.70;2.80;;;;;;;;;;5001947;28;20029;-70
2022/06/01 03:20:58;;;;;;;3.97;2.88;;;;;;;;;;4995529;28;20062;-71
2022/06/01 03:23:25;;;;;;;3.63;2.88;;;;;;;;;;4997971;28;20023;-70
2022/06/01 03:25:53;;;;;;;3.25;2.67;;;;;;;;;;5001713;28;20077;-71
2022/06/01 03:28:18;;;;;;;3.80;2.45;;;;;;;;;;4997456;28;20084;-71
2022/06/01 03:30:44;;;;;;;3.25;2.67;;;;;;;;;;4996271;28;20092;-72
2022/06/01 03:33:13;;;;;;;5.82;2.97;;;;;;;;;;5003381;28;20030;-71
2022/06/01 03:35:40;;;;;;;5.70;2.97;;;;;;;;;;5016519;28;20081;-71
2022/06/01 03:38:08;;;;;;;3.90;2.75;;;;;;;;;;4996690;28;20325;-70
2022/06/01 03:40:37;;;;;;;5.35;3.10;;;;;;;;;;5003255;28;20095;-71
2022/06/01 03:43:04;;;;;;;9.07;3.28;;;;;;;;;;4998338;28;20129;-70
2022/06/01 03:48:14;;;;;;;3.17;2.85;;;;;;;;;;4996218;28;20437;-70
2022/06/01 03:50:40;;;;;;;6.85;2.80;;;;;;;;;;4998337;28;20026;-70
2022/06/01 03:53:07;;;;;;;5.30;2.75;;;;;;;;;;5000477;28;20041;-70
2022/06/01 03:55:34;;;;;;;4.22;2.72;;;;;;;;;;4996651;28;20026;-70
2022/06/01 03:58:01;;;;;;;3.88;3.08;;;;;;;;;;5014985;28;20033;-71
2022/06/01 04:00:27;;;;;;;4.28;2.80;;;;;;;;;;4997866;28;20396;-71
2022/06/01 04:02:53;;;;;;;3.38;2.72;;;;;;;;;;5002380;28;20023;-71
2022/06/01 04:05:20;;;;;;;2.97;2.78;;;;;;;;;;5004436;28;20034;-70
2022/06/01 04:07:45;;;;;;;4.22;3.53;;;;;;;;;;4998175;28;20064;-70
2022/06/01 04:10:11;;;;;;;6.22;3.47;;;;;;;;;;5002330;28;20068;-70
2022/06/01 04:12:37;;;;;;;5.13;2.80;;;;;;;;;;5013073;28;20033;-70
2022/06/01 04:15:05;;;;;;;2.85;2.63;;;;;;;;;;4998979;28;20099;-71
2022/06/01 04:17:31;;;;;;;3.63;2.95;;;;;;;;;;4995317;28;20034;-70
2022/06/01 04:19:57;;;;;;;3.15;2.85;;;;;;;;;;5013406;28;20041;-70
2022/06/01 04:22:23;;;;;;;5.47;3.80;;;;;;;;;;4999665;28;20031;-71
2022/06/01 04:24:49;;;;;;;9.45;3.00;;;;;;;;;;4998257;28;20096;-70
2022/06/01 04:27:16;;;;;;;4.18;3.03;;;;;;;;;;4997939;28;20034;-74
2022/06/01 04:29:42;;;;;;;3.78;2.42;;;;;;;;;;5007123;28;20029;-71
2022/06/01 04:32:13;;;;;;;3.70;3.20;;;;;;;;;;4997627;28;20034;-72
2022/06/01 04:34:39;;;;;;;3.10;2.90;;;;;;;;;;5000026;28;20427;-71
2022/06/01 04:37:05;;;;;;;5.53;3.17;;;;;;;;;;4997378;28;20038;-71
2022/06/01 04:39:32;;;;;;;4.95;2.72;;;;;;;;;;4999584;28;20025;-72
2022/06/01 04:41:57;;;;;;;5.70;3.75;;;;;;;;;;4997795;28;20486;-73
2022/06/01 04:44:24;;;;;;;3.45;2.80;;;;;;;;;;4998479;28;20088;-71
2022/06/01 04:46:49;;;;;;;3.85;2.75;;;;;;;;;;5010018;28;20502;-70
2022/06/01 04:49:15;;;;;;;6.85;3.67;;;;;;;;;;4998034;28;20062;-72
2022/06/01 04:51:41;;;;;;;3.13;2.83;;;;;;;;;;4997805;28;20444;-72
2022/06/01 04:54:07;;;;;;;4.30;2.88;;;;;;;;;;4997930;28;20058;-72
2022/06/01 04:56:33;;;;;;;5.18;3.25;;;;;;;;;;5006712;28;20541;-71
2022/06/01 04:58:58;;;;;;;3.25;2.88;;;;;;;;;;4997853;28;20344;-70
2022/06/01 05:01:25;;;;;;;4.55;2.88;;;;;;;;;;4999097;28;20030;-71
2022/06/01 05:03:51;;;;;;;6.45;3.10;;;;;;;;;;4997851;28;20030;-71
2022/06/01 05:06:16;;;;;;;4.63;3.35;;;;;;;;;;4999011;28;20041;-70
2022/06/01 05:08:42;;;;;;;3.30;2.88;;;;;;;;;;4995097;28;20109;-70
2022/06/01 05:11:07;;;;;;;4.45;3.50;;;;;;;;;;5013026;28;20033;-71
2022/06/01 05:13:33;;;;;;;5.82;2.65;;;;;;;;;;4997009;28;20030;-71
2022/06/01 05:16:01;;;;;;;4.13;3.03;;;;;;;;;;4996855;28;20278;-71
2022/06/01 05:18:27;;;;;;;4.43;3.00;;;;;;;;;;4997098;28;20521;-70
2022/06/01 05:20:54;;;;;;;4.90;3.28;;;;;;;;;;4996524;28;20180;-72
2022/06/01 05:23:20;;;;;;;3.58;2.75;;;;;;;;;;4985051;28;20045;-72
2022/06/01 05:25:49;;;;;;;11.73;4.70;;;;;;;;;;4995548;28;20041;-71
2022/06/01 05:28:26;;;;;;;4.40;3.00;;;;;;;;;;4984834;28;20092;-70
2022/06/01 05:31:06;;;;;;;4.90;2.60;;;;;;;;;;4971765;28;20042;-71
2022/06/01 05:33:33;;;;;;;5.67;2.87;;;;;;;;;;4988289;28;20030;-72
2022/06/01 05:35:59;;;;;;;3.75;3.10;;;;;;;;;;5010032;28;20041;-72
2022/06/01 05:38:24;;;;;;;3.42;2.63;;;;;;;;;;4999779;28;20033;-72
2022/06/01 05:40:53;;;;;;;5.47;2.55;;;;;;;;;;4991451;28;20042;-70
2022/06/01 05:43:20;;;;;;;9.88;3.92;;;;;;;;;;5001393;28;20037;-71
2022/06/01 05:45:45;;;;;;;4.97;3.28;;;;;;;;;;4993454;28;20413;-72
2022/06/01 05:48:22;;;;;;;3.08;2.50;;;;;;;;;;4996286;28;20026;-74
2022/06/01 05:50:49;;;;;;;6.97;2.67;;;;;;;;;;4992723;28;20528;-73
2022/06/01 05:53:15;;;;;;;4.95;2.72;;;;;;;;;;5010069;28;20122;-71
2022/06/01 05:55:40;;;;;;;4.45;2.88;;;;;;;;;;4989446;28;20132;-71
2022/06/01 05:58:13;;;;;;;2.60;2.33;;;;;;;;;;5007117;28;20077;-72
2022/06/01 06:00:41;;;;;;;4.63;2.65;;;;;;;;;;5016258;28;20407;-71
2022/06/01 06:03:08;;;;;;;2.90;2.47;;;;;;;;;;5015168;28;20432;-72
2022/06/01 06:08:19;;;;;;;8.23;2.88;;;;;;;;;;4999772;28;20600;-72
2022/06/01 06:10:44;;;;;;;4.25;2.60;;;;;;;;;;4992864;28;20109;-72
2022/06/01 06:13:10;;;;;;;2.42;2.22;;;;;;;;;;4991472;28;20040;-72
2022/06/01 06:15:35;;;;;;;2.72;2.13;;;;;;;;;;4994897;28;20029;-72
2022/06/01 06:18:01;;;;;;;6.72;3.45;;;;;;;;;;5000377;28;20036;-72
2022/06/01 06:20:28;;;;;;;3.22;2.80;;;;;;;;;;4991280;28;20049;-73
2022/06/01 06:22:53;;;;;;;5.70;3.60;;;;;;;;;;4995266;28;20470;-72
2022/06/01 06:25:19;;;;;;;3.13;2.60;;;;;;;;;;4999961;28;20358;-73
2022/06/01 06:27:44;;;;;;;5.22;2.90;;;;;;;;;;5000615;28;20041;-71
2022/06/01 06:30:11;;;;;;;3.78;2.60;;;;;;;;;;5008280;28;20269;-72
2022/06/01 06:32:36;;;;;;;3.83;2.25;;;;;;;;;;4990610;28;20054;-71
2022/06/01 06:35:02;;;;;;;2.75;2.50;;;;;;;;;;4992998;28;20568;-70
2022/06/01 06:37:28;;;;;;;4.57;2.50;;;;;;;;;;4997329;28;20038;-71
2022/06/01 06:39:55;;;;;;;3.22;2.40;;;;;;;;;;4994010;28;20026;-71
2022/06/01 06:42:22;;;;;;;4.50;2.65;;;;;;;;;;4994186;28;20026;-71
2022/06/01 06:44:47;;;;;;;4.07;2.53;;;;;;;;;;4982399;28;20039;-71
2022/06/01 06:47:13;;;;;;;5.70;2.53;;;;;;;;;;4992722;28;20048;-70
2022/06/01 06:49:39;;;;;;;8.68;2.60;;;;;;;;;;4974866;28;20120;-72
2022/06/01 06:52:05;;;;;;;7.30;2.95;;;;;;;;;;4980475;28;20045;-70
2022/06/01 06:54:31;;;;;;;6.05;2.67;;;;;;;;;;4982953;28;20037;-72
2022/06/01 06:56:56;;;;;;;7.88;3.42;;;;;;;;;;4984271;28;20034;-74
2022/06/01 06:59:26;;;;;;;3.75;3.00;;;;;;;;;;4988857;28;20160;-71
2022/06/01 07:01:54;;;;;;;4.50;2.30;;;;;;;;;;4992939;28;20077;-73
2022/06/01 07:04:20;;;;;;;3.70;2.70;;;;;;;;;;4970247;28;20038;-72
2022/06/01 07:06:45;;;;;;;4.90;2.55;;;;;;;;;;4976980;28;20038;-71
2022/06/01 07:09:12;;;;;;;6.18;2.38;;;;;;;;;;4979472;28;20045;-71
2022/06/01 07:11:38;;;;;;;8.27;2.53;;;;;;;;;;4978475;28;20030;-72
2022/06/01 07:14:04;;;;;;;5.50;2.50;;;;;;;;;;4982270;28;20567;-73
2022/06/01 07:16:32;;;;;;;3.30;2.63;;;;;;;;;;4981715;28;20042;-74
2022/06/01 07:19:00;;;;;;;4.03;2.95;;;;;;;;;;4975389;28;20022;-71
2022/06/01 07:21:26;;;;;;;3.42;3.13;;;;;;;;;;4991850;28;20058;-74
2022/06/01 07:23:52;;;;;;;4.10;2.67;;;;;;;;;;4975795;28;20065;-73
2022/06/01 07:26:24;;;;;;;9.07;2.92;;;;;;;;;;4978162;28;20132;-72
2022/06/01 07:28:51;;;;;;;6.25;2.55;;;;;;;;;;4981399;28;20042;-74
2022/06/01 07:31:22;;;;;;;4.22;2.75;;;;;;;;;;4984285;28;20038;-73
2022/06/01 07:33:48;;;;;;;4.30;2.55;;;;;;;;;;4983597;28;20827;-71
2022/06/01 07:36:16;;;;;;;2.83;2.63;;;;;;;;;;4988912;28;20034;-71
2022/06/01 07:44:17;;;;;;;2.70;2.50;;;;;;;;;;4984376;28;20514;-72
2022/06/01 07:46:43;;;;;;;5.00;2.55;;;;;;;;;;4996189;28;20038;-72
2022/06/01 07:49:09;;;;;;;2.50;2.30;;;;;;;;;;4975199;28;20022;-73
2022/06/01 07:51:35;;;;;;;2.95;2.50;;;;;;;;;;4978165;28;20038;-73
2022/06/01 07:54:02;;;;;;;5.70;2.83;;;;;;;;;;4978432;28;20127;-74
2022/06/01 07:56:27;;;;;;;5.05;3.92;;;;;;;;;;4994360;28;20027;-74
2022/06/01 07:58:53;;;;;;;4.97;3.00;;;;;;;;;;4978402;28;20061;-73
2022/06/01 08:01:25;;;;;;;2.63;2.42;;;;;;;;;;4978831;28;21236;-73
2022/06/01 08:03:52;;;;;;;3.63;2.20;;;;;;;;;;4977960;28;20038;-73
2022/06/01 08:06:18;;;;;;;4.30;2.53;;;;;;;;;;4980468;28;20419;-72
2022/06/01 08:08:43;;;;;;;3.38;2.53;;;;;;;;;;4990963;28;20058;-74
2022/06/01 08:11:10;;;;;;;3.97;2.20;;;;;;;;;;4981214;28;20089;-73
2022/06/01 08:13:37;;;;;;;4.60;2.72;;;;;;;;;;4979155;28;20434;-74
2022/06/01 08:16:03;;;;;;;3.10;2.50;;;;;;;;;;4979992;28;20069;-73
2022/06/01 08:18:29;;;;;;;2.80;2.30;;;;;;;;;;4977054;28;20026;-75
2022/06/01 08:20:55;;;;;;;4.72;1.98;;;;;;;;;;4974857;28;20141;-75
2022/06/01 08:23:23;;;;;;;4.88;2.10;;;;;;;;;;4977015;28;20541;-73
2022/06/01 08:25:50;;;;;;;7.32;2.53;;;;;;;;;;4972638;28;20042;-73
2022/06/01 08:28:16;;;;;;;2.85;2.35;;;;;;;;;;4983279;28;20030;-73
2022/06/01 08:30:42;;;;;;;4.57;2.00;;;;;;;;;;4984478;28;20052;-72
2022/06/01 08:33:09;;;;;;;3.95;2.28;;;;;;;;;;4977271;28;20025;-73
2022/06/01 08:35:40;;;;;;;5.10;2.38;;;;;;;;;;4980758;28;20496;-73
2022/06/01 08:38:06;;;;;;;2.83;1.80;;;;;;;;;;4980805;28;20026;-73
2022/06/01 08:40:58;;;;;;;2.95;2.03;;;;;;;;;;4979525;28;20085;-74
2022/06/01 08:43:29;;;;;;;2.47;1.50;;;;;;;;;;4976907;28;20572;-75
2022/06/01 08:46:01;;;;;;;5.95;1.70;;;;;;;;;;4974626;28;20030;-72
2022/06/01 08:48:40;;;;;;;3.72;1.45;;;;;;;;;;4978958;28;20038;-73
2022/06/01 08:51:07;;;;;;;3.33;1.67;;;;;;;;;;4975772;28;20042;-74
2022/06/01 08:53:33;;;;;;;2.13;1.67;;;;;;;;;;4992465;28;20040;-73
2022/06/01 08:56:11;;;;;;;2.50;1.80;;;;;;;;;;4979102;28;20030;-73
2022/06/01 08:58:44;;;;;;;2.83;1.88;;;;;;;;;;4979581;28;20038;-75
2022/06/01 09:01:23;;;;;;;5.43;2.20;;;;;;;;;;4978082;28;20582;-75
2022/06/01 09:04:07;;;;;;;2.00;1.77;;;;;;;;;;4992193;28;20045;-74
2022/06/01 09:06:45;;;;;;;3.17;1.73;;;;;;;;;;4973522;28;20057;-76
2022/06/01 09:09:34;;;;;;;4.05;1.45;;;;;;;;;;4980417;28;20092;-74
2022/06/01 09:12:05;;;;;;;7.50;1.73;;;;;;;;;;4999119;28;20058;-73
2022/06/01 09:14:39;;;;;;;3.10;1.65;;;;;;;;;;4976982;28;20027;-74
2022/06/01 09:17:07;;;;;;;3.35;1.77;;;;;;;;;;4981167;28;20045;-72
2022/06/01 09:22:42;;;;;;;3.67;2.10;;;;;;;;;;4980110;28;20910;-73
2022/06/01 09:25:18;;;;;;;3.85;1.80;;;;;;;;;;4983292;28;20082;-73
2022/06/01 09:27:47;;;;;;;2.88;2.05;;;;;;;;;;4980706;28;20045;-71
2022/06/01 09:30:20;;;;;;;5.70;2.05;;;;;;;;;;4995341;28;20053;-72
2022/06/01 09:33:07;;;;;;;2.40;1.73;;;;;;;;;;4980191;28;20038;-74
2022/06/01 09:35:44;;;;;;;4.65;1.83;;;;;;;;;;4987288;28;20061;-74
2022/06/01 09:38:20;;;;;;;2.55;1.60;;;;;;;;;;4994858;28;20402;-77
2022/06/01 09:40:46;;;;;;;3.78;1.40;;;;;;;;;;4996957;28;20132;-74
2022/06/01 09:43:37;;;;;;;1.35;1.15;;;;;;;;;;4961136;28;20157;-71
2022/06/01 09:46:03;;;;;;;6.00;1.23;;;;;;;;;;4978587;28;20060;-72
2022/06/01 09:48:33;;;;;;;3.70;1.38;;;;;;;;;;4970725;28;20286;-73
2022/06/01 09:51:06;;;;;;;1.30;1.20;;;;;;;;;;4961612;28;20064;-73
2022/06/01 09:53:48;;;;;;;2.55;1.13;;;;;;;;;;4977032;28;20030;-72
2022/06/01 09:56:29;;;;;;;1.33;0.88;;;;;;;;;;4981079;28;20037;-72
2022/06/01 10:07:30;;;;;;;2.97;1.27;;;;;;;;;;4984904;28;20089;-73
2022/06/01 10:10:04;;;;;;;0.70;0.70;;;;;;;;;;4977957;28;20040;-73
2022/06/01 10:12:43;;;;;;;3.83;1.17;;;;;;;;;;4983022;28;20042;-74
2022/06/01 10:15:30;;;;;;;1.63;1.10;;;;;;;;;;4982261;28;20037;-73
2022/06/01 10:18:06;;;;;;;0.95;0.95;;;;;;;;;;4985200;28;20042;-73
2022/06/01 10:20:55;;;;;;;1.75;0.90;;;;;;;;;;4994628;28;20065;-74
2022/06/01 10:23:57;;;;;;;2.53;0.80;;;;;;;;;;4994735;28;20676;-75
2022/06/01 10:26:37;;;;;;;2.15;1.25;;;;;;;;;;4978952;28;20030;-75
2022/06/01 10:29:08;;;;;;;2.97;0.80;;;;;;;;;;4981375;28;20124;-72
2022/06/01 10:31:45;;;;;;;1.27;1.02;;;;;;;;;;4983416;28;20134;-74
2022/06/01 10:34:20;;;;;;;1.80;1.02;;;;;;;;;;4994147;28;20057;-73
2022/06/01 10:36:56;;;;;;;1.52;0.90;;;;;;;;;;4980104;28;20061;-74
2022/06/01 10:39:25;;;;;;;1.02;0.85;;;;;;;;;;4982594;28;20053;-74
2022/06/01 10:42:03;;;;;;;3.40;1.10;;;;;;;;;;4984527;28;20137;-73
2022/06/01 10:44:56;;;;;;;2.40;0.90;;;;;;;;;;4979565;28;20038;-75
2022/06/01 10:47:48;;;;;;;3.30;1.42;;;;;;;;;;4981310;28;20084;-73
2022/06/01 10:50:27;;;;;;;3.13;1.10;;;;;;;;;;4991829;28;20034;-73
2022/06/01 10:53:04;;;;;;;2.22;1.10;;;;;;;;;;4978282;28;20037;-74
2022/06/01 10:55:42;;;;;;;3.13;1.05;;;;;;;;;;4975003;28;20601;-73
2022/06/01 10:58:18;;;;;;;2.17;1.10;;;;;;;;;;4985536;28;20064;-73
2022/06/01 11:01:18;;;;;;;1.50;1.00;;;;;;;;;;4975920;28;20110;-75
2022/06/01 11:03:59;;;;;;;2.88;0.95;;;;;;;;;;4973659;28;21073;-74
2022/06/01 11:06:36;;;;;;;9.48;1.40;;;;;;;;;;4978996;28;20049;-74
2022/06/01 11:09:26;;;;;;;4.95;1.00;;;;;;;;;;4980680;28;20675;-72
2022/06/01 11:12:29;;;;;;;3.00;1.27;;;;;;;;;;4981802;28;20030;-72
2022/06/01 11:15:38;;;;;;;2.65;1.05;;;;;;;;;;4974480;28;20026;-72
2022/06/01 11:18:29;;;;;;;2.45;1.10;;;;;;;;;;4977647;28;20181;-73
2022/06/01 11:21:17;;;;;;;1.10;1.00;;;;;;;;;;4981015;28;20186;-74
2022/06/01 11:24:25;;;;;;;1.10;1.10;;;;;;;;;;4979231;28;20038;-72
2022/06/01 11:27:04;;;;;;;2.67;2.00;;;;;;;;;;4979977;28;20393;-73
2022/06/01 11:29:48;;;;;;;1.67;1.35;;;;;;;;;;4984587;28;20059;-73
2022/06/01 11:32:53;;;;;;;2.95;1.42;;;;;;;;;;4980401;28;20030;-72
2022/06/01 11:35:40;;;;;;;3.00;1.48;;;;;;;;;;4982341;28;20049;-73
2022/06/01 11:38:39;;;;;;;1.60;1.15;;;;;;;;;;4980825;28;20027;-71
2022/06/01 11:41:17;;;;;;;4.50;1.30;;;;;;;;;;4988133;28;20050;-75
2022/06/01 11:43:49;;;;;;;1.40;1.27;;;;;;;;;;4969968;28;20082;-74
2022/06/01 11:46:22;;;;;;;1.55;1.30;;;;;;;;;;4981012;28;20042;-72
2022/06/01 11:48:53;;;;;;;1.95;1.10;;;;;;;;;;4980590;28;20659;-75
2022/06/01 11:51:47;;;;;;;2.28;1.40;;;;;;;;;;4991964;28;20042;-73
2022/06/01 11:54:36;;;;;;;7.95;1.25;;;;;;;;;;4984052;28;20072;-72
2022/06/01 11:57:38;;;;;;;3.13;1.20;;;;;;;;;;4984884;28;20080;-73
2022/06/01 12:00:16;;;;;;;1.95;1.50;;;;;;;;;;4982016;28;20037;-72
2022/06/01 12:02:42;;;;;;;2.42;1.38;;;;;;;;;;4978322;28;20030;-73
2022/06/01 12:05:22;;;;;;;2.47;1.80;;;;;;;;;;4976156;28;20394;-74
2022/06/01 12:07:54;;;;;;;3.22;1.83;;;;;;;;;;4984992;28;20034;-73
2022/06/01 12:10:28;;;;;;;3.53;1.33;;;;;;;;;;4996781;28;20057;-72
2022/06/01 12:13:04;;;;;;;1.02;0.98;;;;;;;;;;4981138;28;20687;-72
2022/06/01 12:15:38;;;;;;;4.40;1.50;;;;;;;;;;4977828;28;20391;-72
2022/06/01 12:18:21;;;;;;;2.35;1.05;;;;;;;;;;4990358;28;20050;-73
2022/06/01 12:20:51;;;;;;;3.08;1.38;;;;;;;;;;4974690;28;20066;-74
2022/06/01 12:29:04;;;;;;;3.10;1.40;;;;;;;;;;4982121;28;20149;-72
2022/06/01 12:31:39;;;;;;;6.45;1.52;;;;;;;;;;4980614;28;20030;-73
2022/06/01 12:34:10;;;;;;;3.85;1.38;;;;;;;;;;4977287;28;20030;-77
2022/06/01 12:36:36;;;;;;;3.83;1.30;;;;;;;;;;4980711;28;20030;-75
2022/06/01 12:39:19;;;;;;;3.70;1.40;;;;;;;;;;4999640;28;20033;-74
2022/06/01 12:41:54;;;;;;;2.35;1.38;;;;;;;;;;4978241;28;20125;-74
2022/06/01 12:44:22;;;;;;;2.80;0.88;;;;;;;;;;4976070;28;20042;-73
2022/06/01 12:46:51;;;;;;;2.00;1.05;;;;;;;;;;4964718;28;20046;-73
2022/06/01 12:49:21;;;;;;;1.38;1.00;;;;;;;;;;4996508;28;20391;-73
2022/06/01 12:51:47;;;;;;;1.98;1.05;;;;;;;;;;4996730;28;20042;-74
2022/06/01 12:54:24;;;;;;;0.85;0.75;;;;;;;;;;4977441;28;20030;-73
2022/06/01 12:56:51;;;;;;;1.08;0.65;;;;;;;;;;4997958;28;20045;-74
2022/06/01 12:59:18;;;;;;;3.47;0.95;;;;;;;;;;4984223;28;20113;-74
2022/06/01 13:01:50;;;;;;;2.05;0.90;;;;;;;;;;4987265;28;20113;-73
2022/06/01 13:04:24;;;;;;;0.95;0.70;;;;;;;;;;4973368;28;20041;-74
2022/06/01 13:06:54;;;;;;;2.20;1.13;;;;;;;;;;4978072;28;20034;-75
2022/06/01 13:09:28;;;;;;;4.53;1.08;;;;;;;;;;4983120;28;20025;-73
2022/06/01 13:12:17;;;;;;;2.50;0.77;;;;;;;;;;4982795;28;20038;-73
2022/06/01 13:14:45;;;;;;;1.08;0.90;;;;;;;;;;4980792;28;20070;-74
2022/06/01 13:17:16;;;;;;;1.30;0.80;;;;;;;;;;4998757;28;20042;-72
2022/06/01 13:19:42;;;;;;;6.78;1.15;;;;;;;;;;4980612;28;20069;-75
2022/06/01 13:22:19;;;;;;;2.75;0.90;;;;;;;;;;4987963;28;20084;-75
2022/06/01 13:24:52;;;;;;;4.38;1.60;;;;;;;;;;4980802;28;20084;-74
2022/06/01 13:27:20;;;;;;;1.45;0.85;;;;;;;;;;4981406;28;20121;-74
2022/06/01 13:29:52;;;;;;;2.42;0.80;;;;;;;;;;5002907;28;20128;-74
2022/06/01 13:32:26;;;;;;;3.65;1.13;;;;;;;;;;4999627;28;20046;-73
2022/06/01 13:35:01;;;;;;;1.15;0.93;;;;;;;;;;5008828;28;20197;-73
2022/06/01 13:37:29;;;;;;;1.88;0.80;;;;;;;;;;4988235;28;20025;-73
2022/06/01 13:40:00;;;;;;;2.78;0.70;;;;;;;;;;4983100;28;20034;-73
2022/06/01 13:42:30;;;;;;;1.30;0.80;;;;;;;;;;5006260;28;20478;-73
2022/06/01 13:45:08;;;;;;;3.97;1.20;;;;;;;;;;4984184;28;20038;-75
2022/06/01 13:48:02;;;;;;;3.90;1.10;;;;;;;;;;4990845;28;20034;-73
2022/06/01 13:50:37;;;;;;;1.13;0.93;;;;;;;;;;4999443;28;20049;-70
2022/06/01 13:53:14;;;;;;;2.38;0.90;;;;;;;;;;4994868;28;20025;-73
2022/06/01 13:56:04;;;;;;;4.28;1.45;;;;;;;;;;4998615;28;20215;-74
2022/06/01 13:58:39;;;;;;;1.77;0.80;;;;;;;;;;4990697;28;20048;-72
2022/06/01 14:01:16;;;;;;;1.20;0.98;;;;;;;;;;4990501;28;20046;-73
2022/06/01 14:03:52;;;;;;;2.83;1.05;;;;;;;;;;4993188;28;20153;-74
2022/06/01 14:06:38;;;;;;;1.42;0.95;;;;;;;;;;4998309;28;20030;-74
2022/06/01 14:09:06;;;;;;;1.58;0.82;;;;;;;;;;4983311;28;20403;-74
2022/06/01 14:11:32;;;;;;;1.25;0.65;;;;;;;;;;4987706;28;20025;-73
2022/06/01 14:14:04;;;;;;;1.00;0.80;;;;;;;;;;4985673;28;20054;-74
2022/06/01 14:16:31;;;;;;;2.47;0.93;;;;;;;;;;4992250;28;20348;-74
2022/06/01 14:19:00;;;;;;;4.22;1.30;;;;;;;;;;4991807;28;20461;-74
2022/06/01 14:21:27;;;;;;;0.83;0.70;;;;;;;;;;4998282;28;20324;-72
2022/06/01 14:23:53;;;;;;;6.32;2.03;;;;;;;;;;4989475;28;20062;-73
2022/06/01 14:29:05;;;;;;;4.43;0.90;;;;;;;;;;4995232;28;20032;-74
2022/06/01 14:31:38;;;;;;;1.83;1.10;;;;;;;;;;4998436;28;20108;-71
2022/06/01 14:34:11;;;;;;;7.15;1.40;;;;;;;;;;5007653;28;20026;-74
2022/06/01 14:36:37;;;;;;;1.85;0.90;;;;;;;;;;4988845;28;20108;-74
2022/06/01 14:39:03;;;;;;;1.25;0.80;;;;;;;;;;4988848;28;20088;-74
2022/06/01 14:41:33;;;;;;;3.92;0.93;;;;;;;;;;4990125;28;20025;-73
2022/06/01 14:44:07;;;;;;;4.47;1.10;;;;;;;;;;4980303;28;20026;-72
2022/06/01 14:46:34;;;;;;;1.13;0.75;;;;;;;;;;4980615;28;20070;-73
2022/06/01 14:49:00;;;;;;;3.22;1.10;;;;;;;;;;4982290;28;20068;-75
2022/06/01 14:51:28;;;;;;;3.80;1.17;;;;;;;;;;4988088;28;20030;-75
2022/06/01 14:53:55;;;;;;;2.00;1.17;;;;;;;;;;4991047;28;20026;-73
2022/06/01 14:56:22;;;;;;;1.42;1.02;;;;;;;;;;5009117;28;20320;-74
2022/06/01 14:58:48;;;;;;;2.05;1.00;;;;;;;;;;4984028;28;20029;-75
2022/06/01 15:01:22;;;;;;;1.75;1.20;;;;;;;;;;4982344;28;20018;-75
2022/06/01 15:03:49;;;;;;;1.50;1.00;;;;;;;;;;4982244;28;20133;-74
2022/06/01 15:06:16;;;;;;;2.97;0.90;;;;;;;;;;4982577;28;20505;-72
2022/06/01 15:08:42;;;;;;;5.00;1.00;;;;;;;;;;4982996;28;20127;-76
2022/06/01 15:11:09;;;;;;;6.05;4.20;;;;;;;;;;4987648;28;20029;-73
2022/06/01 15:13:35;;;;;;;5.63;1.52;;;;;;;;;;4995738;28;20462;-74
2022/06/01 15:16:02;;;;;;;3.45;1.40;;;;;;;;;;4989576;28;20059;-76
2022/06/01 15:18:29;;;;;;;3.85;1.38;;;;;;;;;;4998613;28;20096;-73
2022/06/01 15:20:54;;;;;;;1.30;1.20;;;;;;;;;;5014191;28;20049;-72
2022/06/01 15:23:20;;;;;;;7.95;1.58;;;;;;;;;;5011224;28;20202;-73
2022/06/01 15:25:47;;;;;;;1.30;1.17;;;;;;;;;;4993706;28;20419;-73
2022/06/01 15:28:13;;;;;;;2.33;1.23;;;;;;;;;;4982354;28;20119;-74
2022/06/01 15:41:43;;;;;;;2.72;1.38;;;;;;;;;;4998919;28;20139;-73
2022/06/01 15:44:08;;;;;;;2.05;1.70;;;;;;;;;;4991889;28;20042;-74
2022/06/01 15:46:37;;;;;;;4.07;1.52;;;;;;;;;;4994460;28;20026;-75
2022/06/01 15:49:08;;;;;;;3.45;1.30;;;;;;;;;;4987561;28;20455;-73
2022/06/01 15:51:35;;;;;;;;;;;;;;;;;;4998253;28;20049;-73
2022/06/01 15:54:01;;;;;;;3.55;1.73;;;;;;;;;;4994116;28;20012;-73
2022/06/01 15:56:31;;;;;;;3.25;1.50;;;;;;;;;;4996774;28;20554;-72